createdAt,value
2019-01-26T00:06:42.058Z,1.50
2019-01-26T00:13:26.291Z,1.50
2019-01-26T00:20:11.251Z,1.50
2019-01-26T00:26:55.433Z,1.50
2019-01-26T00:33:43.190Z,1.50
2019-01-26T00:40:23.942Z,1.50
2019-01-26T00:47:08.153Z,1.50
2019-01-26T00:53:52.374Z,1.60
2019-01-26T01:00:36.610Z,1.60
2019-01-26T01:07:20.913Z,1.50
2019-01-26T01:14:05.227Z,1.40
2019-01-26T01:20:50.771Z,1.20
2019-01-26T01:27:35.398Z,1.10
2019-01-26T01:34:19.624Z,0.90
2019-01-26T01:41:03.889Z,0.80
2019-01-26T01:47:48.184Z,0.80
2019-01-26T01:54:32.704Z,0.70
2019-01-26T02:01:16.950Z,0.80
2019-01-26T02:08:01.130Z,0.80
2019-01-26T02:14:45.366Z,0.80
2019-01-26T02:21:29.617Z,0.80
2019-01-26T02:28:13.878Z,0.80
2019-01-26T02:34:58.137Z,0.70
2019-01-26T02:41:42.417Z,0.60
2019-01-26T02:48:26.711Z,0.50
2019-01-26T02:55:11.209Z,0.60
2019-01-26T03:01:58.079Z,0.60
2019-01-26T03:08:42.363Z,0.70
2019-01-26T03:15:26.686Z,0.70
2019-01-26T03:22:10.997Z,0.70
2019-01-26T03:28:55.269Z,0.70
2019-01-26T03:35:39.521Z,0.80
2019-01-26T03:42:23.762Z,0.80
2019-01-26T03:49:08.098Z,0.90
2019-01-26T03:55:52.297Z,1.00
2019-01-26T04:02:36.625Z,1.00
2019-01-26T04:09:20.874Z,1.10
2019-01-26T04:16:05.179Z,1.20
2019-01-26T04:22:49.526Z,1.30
2019-01-26T04:29:34.305Z,1.40
2019-01-26T04:36:18.734Z,1.50
2019-01-26T04:43:03.073Z,1.60
2019-01-26T04:49:47.499Z,1.60
2019-01-26T04:56:31.725Z,1.80
2019-01-26T05:03:16.156Z,1.80
2019-01-26T05:10:00.398Z,1.90
2019-01-26T05:16:44.651Z,2.00
2019-01-26T05:23:28.865Z,2.00
2019-01-26T05:30:17.395Z,2.10
2019-01-26T05:37:01.654Z,2.20
2019-01-26T05:43:45.925Z,2.00
2019-01-26T05:50:30.201Z,1.90
2019-01-26T05:57:15.093Z,2.00
2019-01-26T06:03:59.325Z,2.00
2019-01-26T06:10:43.562Z,2.00
2019-01-26T06:17:27.812Z,2.10
2019-01-26T06:24:12.079Z,2.20
2019-01-26T06:30:56.326Z,2.40
2019-01-26T06:37:40.556Z,2.50
2019-01-26T06:44:24.829Z,2.50
2019-01-26T06:51:09.256Z,2.20
2019-01-26T06:57:54.321Z,2.10
2019-01-26T07:04:48.677Z,2.20
2019-01-26T07:11:32.940Z,2.30
2019-01-26T07:18:17.838Z,2.40
2019-01-26T07:25:02.657Z,2.40
2019-01-26T07:31:46.909Z,2.30
2019-01-26T07:38:32.269Z,2.20
2019-01-26T07:45:16.725Z,2.20
2019-01-26T07:52:15.617Z,2.20
2019-01-26T07:59:07.363Z,2.30
2019-01-26T08:05:52.002Z,2.50
2019-01-26T08:12:36.362Z,2.90
2019-01-26T08:19:20.690Z,3.40
2019-01-26T08:26:04.940Z,3.80
2019-01-26T08:32:49.648Z,4.30
2019-01-26T08:39:33.846Z,4.60
2019-01-26T08:46:18.269Z,4.70
2019-01-26T08:53:02.593Z,4.80
2019-01-26T08:59:46.806Z,4.90
2019-01-26T09:06:37.484Z,5.10
2019-01-26T09:13:21.717Z,5.30
2019-01-26T09:20:07.838Z,5.30
2019-01-26T09:26:52.072Z,5.30
2019-01-26T09:33:36.354Z,5.50
2019-01-26T09:40:20.601Z,5.50
2019-01-26T09:47:09.214Z,5.60
2019-01-26T09:54:06.344Z,5.70
2019-01-26T10:00:52.962Z,5.80
2019-01-26T10:07:38.866Z,5.90
2019-01-26T10:14:23.780Z,6.10
2019-01-26T10:21:08.006Z,6.30
2019-01-26T10:27:52.343Z,6.20
2019-01-26T10:34:40.222Z,6.10
2019-01-26T10:42:01.053Z,6.40
2019-01-26T10:48:45.249Z,6.70
2019-01-26T10:55:29.473Z,6.80
2019-01-26T11:02:14.417Z,7.20
2019-01-26T11:08:58.609Z,7.80
2019-01-26T11:22:44.478Z,8.60
2019-01-26T11:29:28.954Z,8.60
2019-01-26T11:36:13.257Z,9.10
2019-01-26T11:42:58.815Z,8.90
2019-01-26T11:49:47.350Z,8.70
2019-01-26T11:56:36.882Z,9.20
2019-01-26T12:04:30.502Z,9.80
2019-01-26T12:11:15.720Z,10.20
2019-01-26T12:17:59.965Z,10.40
2019-01-26T12:24:44.173Z,10.50
2019-01-26T12:31:28.474Z,9.50
2019-01-26T12:38:12.714Z,8.90
2019-01-26T12:44:56.926Z,8.70
2019-01-26T12:51:41.157Z,8.80
2019-01-26T12:58:25.451Z,8.90
2019-01-26T13:05:09.693Z,8.80
2019-01-26T13:11:54.786Z,8.60
2019-01-26T13:18:39.010Z,8.40
2019-01-26T13:25:23.510Z,8.40
2019-01-26T13:32:10.110Z,8.20
2019-01-26T13:38:56.547Z,8.40
2019-01-26T13:45:40.740Z,8.60
2019-01-26T13:52:24.974Z,8.70
2019-01-26T13:59:09.237Z,8.70
2019-01-26T14:05:54.986Z,8.60
2019-01-26T14:12:39.328Z,8.30
2019-01-26T14:19:23.665Z,8.20
2019-01-26T14:26:07.940Z,8.30
2019-01-26T14:32:52.674Z,7.90
2019-01-26T14:39:36.400Z,7.60
2019-01-26T14:46:20.686Z,7.50
2019-01-26T14:53:04.979Z,7.40
2019-01-26T14:59:49.165Z,7.30
2019-01-26T15:06:35.529Z,7.30
2019-01-26T15:13:19.722Z,7.20
2019-01-26T15:20:06.058Z,7.10
2019-01-26T15:26:48.822Z,7.00
2019-01-26T15:33:33.100Z,6.90
2019-01-26T15:40:17.460Z,6.80
2019-01-26T15:47:12.669Z,6.80
2019-01-26T15:53:56.966Z,6.70
2019-01-26T16:00:43.941Z,6.60
2019-01-26T16:07:28.185Z,6.50
2019-01-26T16:14:12.421Z,6.40
2019-01-26T16:21:01.294Z,6.40
2019-01-26T16:27:45.545Z,6.40
2019-01-26T16:34:29.801Z,6.30
2019-01-26T16:41:14.182Z,6.20
2019-01-26T16:48:01.813Z,6.20
2019-01-26T16:54:46.001Z,6.10
2019-01-26T17:01:39.836Z,6.10
2019-01-26T17:22:33.441Z,6.20
2019-01-26T17:29:17.682Z,6.20
2019-01-26T17:36:01.933Z,6.20
2019-01-26T17:42:46.178Z,6.20
2019-01-26T17:49:30.405Z,6.10
2019-01-26T17:56:14.658Z,6.00
2019-01-26T18:02:59.714Z,6.00
2019-01-26T18:09:53.891Z,6.00
2019-01-26T18:16:38.206Z,6.00
2019-01-26T18:23:27.713Z,6.10
2019-01-26T18:30:14.873Z,6.10
2019-01-26T18:37:13.769Z,6.00
2019-01-26T18:43:58.003Z,5.90
2019-01-26T18:50:56.647Z,5.90
2019-01-26T18:57:50.201Z,5.80
2019-01-26T19:04:39.637Z,5.90
2019-01-26T19:11:25.102Z,5.80
2019-01-26T19:18:09.804Z,5.90
2019-01-26T19:25:04.863Z,6.10
2019-01-26T19:31:49.122Z,6.10
2019-01-26T19:38:34.634Z,6.00
2019-01-26T19:45:19.968Z,6.00
2019-01-26T19:52:04.431Z,6.00
2019-01-26T19:58:49.073Z,6.00
2019-01-26T20:05:33.383Z,5.80
2019-01-26T20:12:18.053Z,5.80
2019-01-26T20:19:02.828Z,5.80
2019-01-26T20:25:50.734Z,5.70
2019-01-26T20:32:36.225Z,5.70
2019-01-26T20:39:20.510Z,5.70
2019-01-26T20:46:04.781Z,5.50
2019-01-26T20:52:52.022Z,5.20
2019-01-26T20:59:36.226Z,5.10
2019-01-26T21:06:20.529Z,5.10
2019-01-26T21:13:04.838Z,5.10
2019-01-26T21:19:49.106Z,5.00
2019-01-26T21:26:33.353Z,5.30
2019-01-26T21:33:17.926Z,5.30
2019-01-26T21:40:02.254Z,5.30
2019-01-26T21:46:46.474Z,5.30
2019-01-26T21:53:30.718Z,5.40
2019-01-26T22:00:25.735Z,5.50
2019-01-26T22:07:10.625Z,5.50
2019-01-26T22:13:56.108Z,5.60
2019-01-26T22:20:41.049Z,5.50
2019-01-26T22:27:25.975Z,5.50
2019-01-26T22:34:10.846Z,5.50
2019-01-26T22:40:55.865Z,5.50
2019-01-26T22:47:40.086Z,5.60
2019-01-26T22:54:25.029Z,5.60
2019-01-26T23:01:15.349Z,5.60
2019-01-26T23:08:05.928Z,5.50
2019-01-26T23:15:03.730Z,5.60
2019-01-26T23:22:04.194Z,5.50
2019-01-26T23:29:04.670Z,5.40
2019-01-26T23:35:48.958Z,5.40
2019-01-26T23:42:33.171Z,5.70
2019-01-26T23:49:20.299Z,5.50
2019-01-26T23:56:04.579Z,5.30
